sensor_id;sensor_type;location;lat;lon;timestamp;P1;durP1;ratioP1;P2;durP2;ratioP2
64619;SDS011;51029;51.058;13.826;2024-02-26T00:01:27;22.27;;;17.57;;
64619;SDS011;51029;51.058;13.826;2024-02-26T00:03:53;20.63;;;17.07;;
64619;SDS011;51029;51.058;13.826;2024-02-26T00:06:20;21.17;;;17.50;;
64619;SDS011;51029;51.058;13.826;2024-02-26T00:08:46;23.17;;;18.37;;
64619;SDS011;51029;51.058;13.826;2024-02-26T00:11:12;22.77;;;17.97;;
64619;SDS011;51029;51.058;13.826;2024-02-26T00:13:38;20.43;;;17.20;;
64619;SDS011;51029;51.058;13.826;2024-02-26T00:16:04;21.40;;;17.70;;
64619;SDS011;51029;51.058;13.826;2024-02-26T00:18:31;21.87;;;17.90;;
64619;SDS011;51029;51.058;13.826;2024-02-26T00:20:57;22.70;;;18.17;;
64619;SDS011;51029;51.058;13.826;2024-02-26T00:23:23;22.70;;;17.77;;
64619;SDS011;51029;51.058;13.826;2024-02-26T00:25:49;22.40;;;18.13;;
64619;SDS011;51029;51.058;13.826;2024-02-26T00:28:15;23.90;;;18.07;;
64619;SDS011;51029;51.058;13.826;2024-02-26T00:30:41;23.37;;;19.20;;
64619;SDS011;51029;51.058;13.826;2024-02-26T00:33:07;23.90;;;18.57;;
64619;SDS011;51029;51.058;13.826;2024-02-26T00:35:33;23.07;;;18.13;;
64619;SDS011;51029;51.058;13.826;2024-02-26T00:37:59;22.80;;;17.93;;
64619;SDS011;51029;51.058;13.826;2024-02-26T00:40:27;20.10;;;16.60;;
64619;SDS011;51029;51.058;13.826;2024-02-26T00:42:52;22.67;;;18.37;;
64619;SDS011;51029;51.058;13.826;2024-02-26T00:45:18;49.63;;;35.27;;
64619;SDS011;51029;51.058;13.826;2024-02-26T00:47:44;48.00;;;34.67;;
64619;SDS011;51029;51.058;13.826;2024-02-26T00:50:12;26.40;;;19.20;;
64619;SDS011;51029;51.058;13.826;2024-02-26T00:52:38;22.83;;;17.07;;
64619;SDS011;51029;51.058;13.826;2024-02-26T00:55:04;21.93;;;18.00;;
64619;SDS011;51029;51.058;13.826;2024-02-26T00:57:31;21.47;;;18.00;;
64619;SDS011;51029;51.058;13.826;2024-02-26T00:59:57;21.13;;;17.53;;
64619;SDS011;51029;51.058;13.826;2024-02-26T01:02:23;24.80;;;18.63;;
64619;SDS011;51029;51.058;13.826;2024-02-26T01:04:49;22.23;;;18.43;;
64619;SDS011;51029;51.058;13.826;2024-02-26T01:07:15;22.20;;;18.37;;
64619;SDS011;51029;51.058;13.826;2024-02-26T01:09:42;20.50;;;17.27;;
64619;SDS011;51029;51.058;13.826;2024-02-26T01:12:08;22.80;;;17.80;;
64619;SDS011;51029;51.058;13.826;2024-02-26T01:14:34;23.70;;;18.13;;
64619;SDS011;51029;51.058;13.826;2024-02-26T01:17:00;21.50;;;18.23;;
64619;SDS011;51029;51.058;13.826;2024-02-26T01:19:25;21.83;;;18.00;;
64619;SDS011;51029;51.058;13.826;2024-02-26T01:21:51;78.53;;;50.90;;
64619;SDS011;51029;51.058;13.826;2024-02-26T01:24:17;28.20;;;22.07;;
64619;SDS011;51029;51.058;13.826;2024-02-26T01:26:43;22.90;;;19.33;;
64619;SDS011;51029;51.058;13.826;2024-02-26T01:29:09;22.50;;;17.20;;
64619;SDS011;51029;51.058;13.826;2024-02-26T01:31:35;20.90;;;17.63;;
64619;SDS011;51029;51.058;13.826;2024-02-26T01:34:01;22.17;;;17.80;;
64619;SDS011;51029;51.058;13.826;2024-02-26T01:36:27;22.90;;;19.27;;
64619;SDS011;51029;51.058;13.826;2024-02-26T01:38:53;25.67;;;18.20;;
64619;SDS011;51029;51.058;13.826;2024-02-26T01:41:19;24.93;;;19.07;;
64619;SDS011;51029;51.058;13.826;2024-02-26T01:43:45;26.20;;;20.13;;
64619;SDS011;51029;51.058;13.826;2024-02-26T01:46:11;25.73;;;19.50;;
64619;SDS011;51029;51.058;13.826;2024-02-26T01:48:39;26.23;;;21.40;;
64619;SDS011;51029;51.058;13.826;2024-02-26T01:51:05;26.40;;;20.17;;
64619;SDS011;51029;51.058;13.826;2024-02-26T01:53:31;26.70;;;19.40;;
64619;SDS011;51029;51.058;13.826;2024-02-26T01:55:57;24.13;;;19.00;;
64619;SDS011;51029;51.058;13.826;2024-02-26T01:58:23;24.23;;;18.23;;
64619;SDS011;51029;51.058;13.826;2024-02-26T02:00:49;22.90;;;18.43;;
64619;SDS011;51029;51.058;13.826;2024-02-26T02:03:15;25.57;;;19.27;;
64619;SDS011;51029;51.058;13.826;2024-02-26T02:05:41;24.27;;;19.20;;
64619;SDS011;51029;51.058;13.826;2024-02-26T02:08:08;25.93;;;19.60;;
64619;SDS011;51029;51.058;13.826;2024-02-26T02:10:36;23.87;;;18.80;;
64619;SDS011;51029;51.058;13.826;2024-02-26T02:13:03;27.07;;;19.13;;
64619;SDS011;51029;51.058;13.826;2024-02-26T02:15:29;25.40;;;19.53;;
64619;SDS011;51029;51.058;13.826;2024-02-26T02:17:55;26.23;;;19.67;;
64619;SDS011;51029;51.058;13.826;2024-02-26T02:20:33;23.27;;;19.60;;
64619;SDS011;51029;51.058;13.826;2024-02-26T02:22:59;24.90;;;20.50;;
64619;SDS011;51029;51.058;13.826;2024-02-26T02:25:25;24.23;;;18.97;;
64619;SDS011;51029;51.058;13.826;2024-02-26T02:27:51;24.07;;;19.80;;
64619;SDS011;51029;51.058;13.826;2024-02-26T02:30:19;29.77;;;19.67;;
64619;SDS011;51029;51.058;13.826;2024-02-26T02:32:46;25.23;;;19.20;;
64619;SDS011;51029;51.058;13.826;2024-02-26T02:35:12;24.70;;;19.40;;
64619;SDS011;51029;51.058;13.826;2024-02-26T02:37:38;27.47;;;19.93;;
64619;SDS011;51029;51.058;13.826;2024-02-26T02:40:04;23.73;;;19.70;;
64619;SDS011;51029;51.058;13.826;2024-02-26T02:42:30;27.47;;;19.63;;
64619;SDS011;51029;51.058;13.826;2024-02-26T02:44:56;23.90;;;19.40;;
64619;SDS011;51029;51.058;13.826;2024-02-26T02:47:22;27.03;;;18.73;;
64619;SDS011;51029;51.058;13.826;2024-02-26T02:49:48;26.73;;;20.57;;
64619;SDS011;51029;51.058;13.826;2024-02-26T02:52:14;28.23;;;19.70;;
64619;SDS011;51029;51.058;13.826;2024-02-26T02:54:40;26.23;;;20.33;;
64619;SDS011;51029;51.058;13.826;2024-02-26T02:57:07;24.20;;;18.93;;
64619;SDS011;51029;51.058;13.826;2024-02-26T02:59:33;23.70;;;19.17;;
64619;SDS011;51029;51.058;13.826;2024-02-26T03:01:59;25.33;;;18.87;;
64619;SDS011;51029;51.058;13.826;2024-02-26T03:04:25;24.67;;;18.50;;
64619;SDS011;51029;51.058;13.826;2024-02-26T03:06:51;22.87;;;17.87;;
64619;SDS011;51029;51.058;13.826;2024-02-26T03:09:17;27.93;;;18.87;;
64619;SDS011;51029;51.058;13.826;2024-02-26T03:11:43;24.90;;;18.67;;
64619;SDS011;51029;51.058;13.826;2024-02-26T03:14:09;22.33;;;17.87;;
64619;SDS011;51029;51.058;13.826;2024-02-26T03:16:35;23.33;;;17.87;;
64619;SDS011;51029;51.058;13.826;2024-02-26T03:19:01;21.70;;;17.70;;
64619;SDS011;51029;51.058;13.826;2024-02-26T03:21:28;25.13;;;18.50;;
64619;SDS011;51029;51.058;13.826;2024-02-26T03:23:54;23.33;;;18.47;;
64619;SDS011;51029;51.058;13.826;2024-02-26T03:26:20;23.93;;;17.70;;
64619;SDS011;51029;51.058;13.826;2024-02-26T03:28:46;23.93;;;18.43;;
64619;SDS011;51029;51.058;13.826;2024-02-26T03:31:12;24.83;;;18.60;;
64619;SDS011;51029;51.058;13.826;2024-02-26T03:33:38;21.07;;;16.93;;
64619;SDS011;51029;51.058;13.826;2024-02-26T03:36:04;22.53;;;17.37;;
64619;SDS011;51029;51.058;13.826;2024-02-26T03:38:32;24.83;;;18.13;;
64619;SDS011;51029;51.058;13.826;2024-02-26T03:40:58;20.63;;;17.17;;
64619;SDS011;51029;51.058;13.826;2024-02-26T03:43:24;24.23;;;16.93;;
64619;SDS011;51029;51.058;13.826;2024-02-26T03:45:50;22.27;;;16.07;;
64619;SDS011;51029;51.058;13.826;2024-02-26T03:48:15;22.87;;;17.97;;
64619;SDS011;51029;51.058;13.826;2024-02-26T03:50:41;23.70;;;17.20;;
64619;SDS011;51029;51.058;13.826;2024-02-26T03:53:07;21.30;;;16.83;;
64619;SDS011;51029;51.058;13.826;2024-02-26T03:55:37;19.57;;;16.27;;
64619;SDS011;51029;51.058;13.826;2024-02-26T03:58:03;22.83;;;16.23;;
64619;SDS011;51029;51.058;13.826;2024-02-26T04:00:29;20.93;;;16.27;;
64619;SDS011;51029;51.058;13.826;2024-02-26T04:02:55;20.77;;;16.37;;
64619;SDS011;51029;51.058;13.826;2024-02-26T04:05:21;22.67;;;17.03;;
64619;SDS011;51029;51.058;13.826;2024-02-26T04:07:47;24.13;;;18.07;;
64619;SDS011;51029;51.058;13.826;2024-02-26T04:10:13;22.93;;;17.03;;
64619;SDS011;51029;51.058;13.826;2024-02-26T04:12:40;23.60;;;17.13;;
64619;SDS011;51029;51.058;13.826;2024-02-26T04:15:06;24.23;;;18.03;;
64619;SDS011;51029;51.058;13.826;2024-02-26T04:17:32;23.03;;;17.23;;
64619;SDS011;51029;51.058;13.826;2024-02-26T04:19:58;22.60;;;17.67;;
64619;SDS011;51029;51.058;13.826;2024-02-26T04:22:24;21.17;;;17.23;;
64619;SDS011;51029;51.058;13.826;2024-02-26T04:24:50;24.43;;;17.63;;
64619;SDS011;51029;51.058;13.826;2024-02-26T04:27:16;22.03;;;16.63;;
64619;SDS011;51029;51.058;13.826;2024-02-26T04:29:42;22.60;;;17.00;;
64619;SDS011;51029;51.058;13.826;2024-02-26T04:32:08;22.90;;;16.93;;
64619;SDS011;51029;51.058;13.826;2024-02-26T04:34:34;21.17;;;15.63;;
64619;SDS011;51029;51.058;13.826;2024-02-26T04:37:00;22.23;;;17.10;;
64619;SDS011;51029;51.058;13.826;2024-02-26T04:39:26;21.93;;;17.07;;
64619;SDS011;51029;51.058;13.826;2024-02-26T04:41:52;21.77;;;16.73;;
64619;SDS011;51029;51.058;13.826;2024-02-26T04:44:18;24.53;;;16.03;;
64619;SDS011;51029;51.058;13.826;2024-02-26T04:46:43;23.03;;;17.63;;
64619;SDS011;51029;51.058;13.826;2024-02-26T04:49:09;20.53;;;16.80;;
64619;SDS011;51029;51.058;13.826;2024-02-26T04:51:35;23.03;;;17.17;;
64619;SDS011;51029;51.058;13.826;2024-02-26T04:54:02;22.93;;;16.10;;
64619;SDS011;51029;51.058;13.826;2024-02-26T04:56:28;22.83;;;16.80;;
64619;SDS011;51029;51.058;13.826;2024-02-26T04:58:54;19.83;;;16.20;;
64619;SDS011;51029;51.058;13.826;2024-02-26T05:01:20;22.27;;;17.20;;
64619;SDS011;51029;51.058;13.826;2024-02-26T05:03:46;23.30;;;16.83;;
64619;SDS011;51029;51.058;13.826;2024-02-26T05:06:12;25.27;;;16.60;;
64619;SDS011;51029;51.058;13.826;2024-02-26T05:08:38;22.87;;;17.00;;
64619;SDS011;51029;51.058;13.826;2024-02-26T05:11:04;20.97;;;16.63;;
64619;SDS011;51029;51.058;13.826;2024-02-26T05:13:30;23.27;;;16.50;;
64619;SDS011;51029;51.058;13.826;2024-02-26T05:15:56;21.23;;;16.77;;
64619;SDS011;51029;51.058;13.826;2024-02-26T05:18:22;20.43;;;15.73;;
64619;SDS011;51029;51.058;13.826;2024-02-26T05:20:48;21.73;;;16.10;;
64619;SDS011;51029;51.058;13.826;2024-02-26T05:23:14;21.87;;;16.07;;
64619;SDS011;51029;51.058;13.826;2024-02-26T05:25:40;24.30;;;16.03;;
64619;SDS011;51029;51.058;13.826;2024-02-26T05:28:06;18.83;;;15.17;;
64619;SDS011;51029;51.058;13.826;2024-02-26T05:30:32;18.37;;;15.40;;
64619;SDS011;51029;51.058;13.826;2024-02-26T05:32:58;23.00;;;16.17;;
64619;SDS011;51029;51.058;13.826;2024-02-26T05:35:24;17.70;;;13.93;;
64619;SDS011;51029;51.058;13.826;2024-02-26T05:37:53;19.87;;;14.83;;
64619;SDS011;51029;51.058;13.826;2024-02-26T05:40:19;19.03;;;14.47;;
64619;SDS011;51029;51.058;13.826;2024-02-26T05:42:45;21.53;;;14.67;;
64619;SDS011;51029;51.058;13.826;2024-02-26T05:45:11;29.00;;;18.40;;
64619;SDS011;51029;51.058;13.826;2024-02-26T05:47:37;20.93;;;15.70;;
64619;SDS011;51029;51.058;13.826;2024-02-26T05:50:08;20.67;;;14.57;;
64619;SDS011;51029;51.058;13.826;2024-02-26T05:52:35;19.53;;;13.63;;
64619;SDS011;51029;51.058;13.826;2024-02-26T05:55:01;20.37;;;13.70;;
64619;SDS011;51029;51.058;13.826;2024-02-26T05:57:28;17.07;;;12.73;;
64619;SDS011;51029;51.058;13.826;2024-02-26T05:59:54;17.47;;;13.20;;
64619;SDS011;51029;51.058;13.826;2024-02-26T06:02:19;15.60;;;12.63;;
64619;SDS011;51029;51.058;13.826;2024-02-26T06:04:45;16.63;;;13.07;;
64619;SDS011;51029;51.058;13.826;2024-02-26T06:07:12;19.27;;;11.93;;
64619;SDS011;51029;51.058;13.826;2024-02-26T06:09:37;15.20;;;12.17;;
64619;SDS011;51029;51.058;13.826;2024-02-26T06:12:04;16.03;;;11.10;;
64619;SDS011;51029;51.058;13.826;2024-02-26T06:14:30;14.97;;;11.87;;
64619;SDS011;51029;51.058;13.826;2024-02-26T06:16:56;19.20;;;11.23;;
64619;SDS011;51029;51.058;13.826;2024-02-26T06:19:23;15.13;;;10.70;;
64619;SDS011;51029;51.058;13.826;2024-02-26T06:21:48;14.83;;;11.03;;
64619;SDS011;51029;51.058;13.826;2024-02-26T06:24:15;15.47;;;10.53;;
64619;SDS011;51029;51.058;13.826;2024-02-26T06:26:41;16.63;;;11.00;;
64619;SDS011;51029;51.058;13.826;2024-02-26T06:29:07;13.67;;;10.50;;
64619;SDS011;51029;51.058;13.826;2024-02-26T06:31:33;15.77;;;11.03;;
64619;SDS011;51029;51.058;13.826;2024-02-26T06:33:59;14.03;;;10.30;;
64619;SDS011;51029;51.058;13.826;2024-02-26T06:36:25;14.23;;;9.67;;
64619;SDS011;51029;51.058;13.826;2024-02-26T06:38:51;18.10;;;10.17;;
64619;SDS011;51029;51.058;13.826;2024-02-26T06:41:19;14.00;;;10.03;;
64619;SDS011;51029;51.058;13.826;2024-02-26T06:43:45;14.03;;;9.70;;
64619;SDS011;51029;51.058;13.826;2024-02-26T06:46:11;16.23;;;10.73;;
64619;SDS011;51029;51.058;13.826;2024-02-26T06:48:37;12.03;;;9.60;;
64619;SDS011;51029;51.058;13.826;2024-02-26T06:51:03;15.10;;;10.00;;
64619;SDS011;51029;51.058;13.826;2024-02-26T06:53:29;13.00;;;10.23;;
64619;SDS011;51029;51.058;13.826;2024-02-26T06:55:55;14.00;;;10.30;;
64619;SDS011;51029;51.058;13.826;2024-02-26T06:58:20;14.63;;;11.07;;
64619;SDS011;51029;51.058;13.826;2024-02-26T07:00:46;14.40;;;10.80;;
64619;SDS011;51029;51.058;13.826;2024-02-26T07:03:12;12.47;;;10.07;;
64619;SDS011;51029;51.058;13.826;2024-02-26T07:05:38;15.57;;;11.00;;
64619;SDS011;51029;51.058;13.826;2024-02-26T07:08:04;15.10;;;10.67;;
64619;SDS011;51029;51.058;13.826;2024-02-26T07:10:31;15.10;;;11.20;;
64619;SDS011;51029;51.058;13.826;2024-02-26T07:12:56;16.20;;;11.20;;
64619;SDS011;51029;51.058;13.826;2024-02-26T07:15:22;16.20;;;11.57;;
64619;SDS011;51029;51.058;13.826;2024-02-26T07:17:48;14.47;;;11.27;;
64619;SDS011;51029;51.058;13.826;2024-02-26T07:20:15;15.20;;;11.37;;
64619;SDS011;51029;51.058;13.826;2024-02-26T07:22:43;14.70;;;11.00;;
64619;SDS011;51029;51.058;13.826;2024-02-26T07:25:09;18.73;;;11.23;;
64619;SDS011;51029;51.058;13.826;2024-02-26T07:27:38;13.93;;;10.47;;
64619;SDS011;51029;51.058;13.826;2024-02-26T07:30:04;15.50;;;12.13;;
64619;SDS011;51029;51.058;13.826;2024-02-26T07:32:30;16.60;;;12.80;;
64619;SDS011;51029;51.058;13.826;2024-02-26T07:34:56;17.80;;;13.80;;
64619;SDS011;51029;51.058;13.826;2024-02-26T07:37:22;18.77;;;14.10;;
64619;SDS011;51029;51.058;13.826;2024-02-26T07:39:48;24.87;;;14.07;;
64619;SDS011;51029;51.058;13.826;2024-02-26T07:42:13;20.67;;;13.33;;
64619;SDS011;51029;51.058;13.826;2024-02-26T07:44:39;16.27;;;11.77;;
64619;SDS011;51029;51.058;13.826;2024-02-26T07:47:08;16.93;;;12.67;;
64619;SDS011;51029;51.058;13.826;2024-02-26T07:49:34;19.50;;;13.20;;
64619;SDS011;51029;51.058;13.826;2024-02-26T07:52:00;17.83;;;12.13;;
64619;SDS011;51029;51.058;13.826;2024-02-26T07:54:25;18.37;;;14.63;;
64619;SDS011;51029;51.058;13.826;2024-02-26T07:56:51;22.80;;;15.80;;
64619;SDS011;51029;51.058;13.826;2024-02-26T07:59:17;20.27;;;12.83;;
64619;SDS011;51029;51.058;13.826;2024-02-26T08:01:43;16.77;;;11.90;;
64619;SDS011;51029;51.058;13.826;2024-02-26T08:04:10;18.33;;;13.07;;
64619;SDS011;51029;51.058;13.826;2024-02-26T08:06:36;19.37;;;12.70;;
64619;SDS011;51029;51.058;13.826;2024-02-26T08:09:02;15.90;;;12.10;;
64619;SDS011;51029;51.058;13.826;2024-02-26T08:11:29;14.23;;;11.80;;
64619;SDS011;51029;51.058;13.826;2024-02-26T08:13:55;16.57;;;12.17;;
64619;SDS011;51029;51.058;13.826;2024-02-26T08:16:21;15.50;;;11.63;;
64619;SDS011;51029;51.058;13.826;2024-02-26T08:18:47;17.20;;;11.27;;
64619;SDS011;51029;51.058;13.826;2024-02-26T08:21:13;15.57;;;11.47;;
64619;SDS011;51029;51.058;13.826;2024-02-26T08:23:39;17.07;;;11.50;;
64619;SDS011;51029;51.058;13.826;2024-02-26T08:26:04;16.10;;;11.40;;
64619;SDS011;51029;51.058;13.826;2024-02-26T08:28:32;16.40;;;11.33;;
64619;SDS011;51029;51.058;13.826;2024-02-26T08:30:58;14.70;;;11.00;;
64619;SDS011;51029;51.058;13.826;2024-02-26T08:33:24;18.17;;;11.87;;
64619;SDS011;51029;51.058;13.826;2024-02-26T08:35:50;16.73;;;10.80;;
64619;SDS011;51029;51.058;13.826;2024-02-26T08:38:15;15.77;;;11.97;;
64619;SDS011;51029;51.058;13.826;2024-02-26T08:40:41;13.40;;;10.57;;
64619;SDS011;51029;51.058;13.826;2024-02-26T08:43:07;13.73;;;10.70;;
64619;SDS011;51029;51.058;13.826;2024-02-26T08:45:34;14.97;;;10.57;;
64619;SDS011;51029;51.058;13.826;2024-02-26T08:48:00;17.00;;;11.87;;
64619;SDS011;51029;51.058;13.826;2024-02-26T08:50:26;14.50;;;10.80;;
64619;SDS011;51029;51.058;13.826;2024-02-26T08:52:52;13.00;;;10.53;;
64619;SDS011;51029;51.058;13.826;2024-02-26T08:55:18;14.87;;;11.17;;
64619;SDS011;51029;51.058;13.826;2024-02-26T08:57:44;13.30;;;11.00;;
64619;SDS011;51029;51.058;13.826;2024-02-26T09:00:10;13.73;;;10.73;;
64619;SDS011;51029;51.058;13.826;2024-02-26T09:02:37;15.20;;;11.40;;
64619;SDS011;51029;51.058;13.826;2024-02-26T09:05:08;12.77;;;10.47;;
64619;SDS011;51029;51.058;13.826;2024-02-26T09:07:35;16.40;;;10.53;;
64619;SDS011;51029;51.058;13.826;2024-02-26T09:10:01;12.97;;;10.43;;
64619;SDS011;51029;51.058;13.826;2024-02-26T09:12:27;14.00;;;10.53;;
64619;SDS011;51029;51.058;13.826;2024-02-26T09:14:53;12.73;;;10.40;;
64619;SDS011;51029;51.058;13.826;2024-02-26T09:17:21;12.53;;;10.20;;
64619;SDS011;51029;51.058;13.826;2024-02-26T09:19:47;16.43;;;10.83;;
64619;SDS011;51029;51.058;13.826;2024-02-26T09:22:13;13.53;;;10.73;;
64619;SDS011;51029;51.058;13.826;2024-02-26T09:24:39;12.00;;;10.47;;
64619;SDS011;51029;51.058;13.826;2024-02-26T09:27:05;12.17;;;9.77;;
64619;SDS011;51029;51.058;13.826;2024-02-26T09:29:31;13.67;;;10.20;;
64619;SDS011;51029;51.058;13.826;2024-02-26T09:31:57;12.43;;;9.90;;
64619;SDS011;51029;51.058;13.826;2024-02-26T09:34:23;14.60;;;9.83;;
64619;SDS011;51029;51.058;13.826;2024-02-26T09:36:49;12.00;;;10.07;;
64619;SDS011;51029;51.058;13.826;2024-02-26T09:39:15;12.87;;;10.17;;
64619;SDS011;51029;51.058;13.826;2024-02-26T09:41:46;14.83;;;10.03;;
64619;SDS011;51029;51.058;13.826;2024-02-26T09:44:12;12.00;;;10.27;;
64619;SDS011;51029;51.058;13.826;2024-02-26T09:46:41;13.50;;;9.90;;
64619;SDS011;51029;51.058;13.826;2024-02-26T09:49:07;13.90;;;9.63;;
64619;SDS011;51029;51.058;13.826;2024-02-26T09:51:34;10.97;;;8.57;;
64619;SDS011;51029;51.058;13.826;2024-02-26T09:54:00;13.67;;;10.03;;
64619;SDS011;51029;51.058;13.826;2024-02-26T09:56:27;12.47;;;9.83;;
64619;SDS011;51029;51.058;13.826;2024-02-26T09:58:53;11.30;;;9.33;;
64619;SDS011;51029;51.058;13.826;2024-02-26T10:01:19;10.50;;;8.70;;
64619;SDS011;51029;51.058;13.826;2024-02-26T10:03:47;10.67;;;9.27;;
64619;SDS011;51029;51.058;13.826;2024-02-26T10:06:14;10.50;;;8.67;;
64619;SDS011;51029;51.058;13.826;2024-02-26T10:08:40;10.73;;;8.20;;
64619;SDS011;51029;51.058;13.826;2024-02-26T10:11:08;8.87;;;7.70;;
64619;SDS011;51029;51.058;13.826;2024-02-26T10:13:36;18.33;;;11.77;;
64619;SDS011;51029;51.058;13.826;2024-02-26T10:16:02;9.37;;;7.97;;
64619;SDS011;51029;51.058;13.826;2024-02-26T10:18:52;8.60;;;7.70;;
64619;SDS011;51029;51.058;13.826;2024-02-26T10:21:20;11.53;;;8.30;;
64619;SDS011;51029;51.058;13.826;2024-02-26T10:23:46;9.53;;;7.47;;
64619;SDS011;51029;51.058;13.826;2024-02-26T10:26:13;9.10;;;7.40;;
64619;SDS011;51029;51.058;13.826;2024-02-26T10:28:39;9.77;;;7.97;;
64619;SDS011;51029;51.058;13.826;2024-02-26T10:31:06;8.77;;;7.57;;
64619;SDS011;51029;51.058;13.826;2024-02-26T10:33:33;8.90;;;7.83;;
64619;SDS011;51029;51.058;13.826;2024-02-26T10:36:00;10.13;;;7.90;;
64619;SDS011;51029;51.058;13.826;2024-02-26T10:38:26;8.60;;;7.23;;
64619;SDS011;51029;51.058;13.826;2024-02-26T10:40:52;9.73;;;7.43;;
64619;SDS011;51029;51.058;13.826;2024-02-26T10:43:18;8.50;;;7.60;;
64619;SDS011;51029;51.058;13.826;2024-02-26T10:45:44;9.27;;;7.57;;
64619;SDS011;51029;51.058;13.826;2024-02-26T10:48:12;10.63;;;7.63;;
64619;SDS011;51029;51.058;13.826;2024-02-26T10:50:38;9.00;;;7.17;;
64619;SDS011;51029;51.058;13.826;2024-02-26T10:53:05;10.03;;;7.63;;
64619;SDS011;51029;51.058;13.826;2024-02-26T10:55:32;8.93;;;7.50;;
64619;SDS011;51029;51.058;13.826;2024-02-26T10:58:00;9.30;;;7.10;;
64619;SDS011;51029;51.058;13.826;2024-02-26T11:00:27;8.33;;;7.17;;
64619;SDS011;51029;51.058;13.826;2024-02-26T11:02:54;10.13;;;8.03;;
64619;SDS011;51029;51.058;13.826;2024-02-26T11:05:23;9.87;;;7.90;;
64619;SDS011;51029;51.058;13.826;2024-02-26T11:07:49;8.90;;;7.90;;
64619;SDS011;51029;51.058;13.826;2024-02-26T11:10:16;9.23;;;7.50;;
64619;SDS011;51029;51.058;13.826;2024-02-26T11:12:42;10.33;;;7.83;;
64619;SDS011;51029;51.058;13.826;2024-02-26T11:15:08;10.73;;;7.87;;
64619;SDS011;51029;51.058;13.826;2024-02-26T11:17:35;8.60;;;7.60;;
64619;SDS011;51029;51.058;13.826;2024-02-26T11:20:03;9.30;;;7.80;;
64619;SDS011;51029;51.058;13.826;2024-02-26T11:22:30;10.33;;;7.53;;
64619;SDS011;51029;51.058;13.826;2024-02-26T11:24:57;9.20;;;7.53;;
64619;SDS011;51029;51.058;13.826;2024-02-26T11:27:30;9.00;;;7.43;;
64619;SDS011;51029;51.058;13.826;2024-02-26T11:29:57;8.77;;;7.03;;
64619;SDS011;51029;51.058;13.826;2024-02-26T11:32:25;8.87;;;7.50;;
64619;SDS011;51029;51.058;13.826;2024-02-26T11:34:51;9.50;;;7.30;;
64619;SDS011;51029;51.058;13.826;2024-02-26T11:37:19;9.00;;;7.57;;
64619;SDS011;51029;51.058;13.826;2024-02-26T11:39:45;10.70;;;7.50;;
64619;SDS011;51029;51.058;13.826;2024-02-26T11:42:15;9.87;;;7.57;;
64619;SDS011;51029;51.058;13.826;2024-02-26T11:44:41;9.97;;;7.33;;
64619;SDS011;51029;51.058;13.826;2024-02-26T11:49:36;9.47;;;7.80;;
64619;SDS011;51029;51.058;13.826;2024-02-26T11:52:05;8.83;;;7.20;;
64619;SDS011;51029;51.058;13.826;2024-02-26T11:54:45;9.07;;;8.10;;
64619;SDS011;51029;51.058;13.826;2024-02-26T11:57:21;10.20;;;7.10;;
64619;SDS011;51029;51.058;13.826;2024-02-26T11:59:47;8.87;;;6.97;;
64619;SDS011;51029;51.058;13.826;2024-02-26T12:02:37;7.57;;;6.87;;
64619;SDS011;51029;51.058;13.826;2024-02-26T12:05:08;8.90;;;7.60;;
64619;SDS011;51029;51.058;13.826;2024-02-26T12:07:36;8.93;;;7.60;;
64619;SDS011;51029;51.058;13.826;2024-02-26T12:10:15;8.27;;;7.43;;
64619;SDS011;51029;51.058;13.826;2024-02-26T12:12:42;11.13;;;8.37;;
64619;SDS011;51029;51.058;13.826;2024-02-26T12:15:08;10.47;;;7.83;;
64619;SDS011;51029;51.058;13.826;2024-02-26T12:17:36;8.60;;;7.47;;
64619;SDS011;51029;51.058;13.826;2024-02-26T12:20:11;7.97;;;6.90;;
64619;SDS011;51029;51.058;13.826;2024-02-26T12:22:41;8.40;;;7.47;;
64619;SDS011;51029;51.058;13.826;2024-02-26T12:25:09;10.53;;;7.87;;
64619;SDS011;51029;51.058;13.826;2024-02-26T12:27:35;11.00;;;8.40;;
64619;SDS011;51029;51.058;13.826;2024-02-26T12:30:02;11.20;;;8.00;;
64619;SDS011;51029;51.058;13.826;2024-02-26T12:32:28;8.80;;;7.23;;
64619;SDS011;51029;51.058;13.826;2024-02-26T12:34:54;9.70;;;7.80;;
64619;SDS011;51029;51.058;13.826;2024-02-26T12:37:20;10.77;;;7.73;;
64619;SDS011;51029;51.058;13.826;2024-02-26T12:39:46;8.90;;;8.00;;
64619;SDS011;51029;51.058;13.826;2024-02-26T12:42:12;9.77;;;8.20;;
64619;SDS011;51029;51.058;13.826;2024-02-26T12:44:39;9.57;;;8.00;;
64619;SDS011;51029;51.058;13.826;2024-02-26T12:47:05;11.40;;;8.40;;
64619;SDS011;51029;51.058;13.826;2024-02-26T12:49:31;9.87;;;7.77;;
64619;SDS011;51029;51.058;13.826;2024-02-26T12:51:57;8.37;;;7.40;;
64619;SDS011;51029;51.058;13.826;2024-02-26T12:54:30;8.47;;;7.57;;
64619;SDS011;51029;51.058;13.826;2024-02-26T12:56:56;10.60;;;8.03;;
64619;SDS011;51029;51.058;13.826;2024-02-26T12:59:23;9.07;;;7.17;;
64619;SDS011;51029;51.058;13.826;2024-02-26T13:01:49;10.30;;;7.67;;
64619;SDS011;51029;51.058;13.826;2024-02-26T13:04:15;9.03;;;7.40;;
64619;SDS011;51029;51.058;13.826;2024-02-26T13:06:42;9.10;;;7.33;;
64619;SDS011;51029;51.058;13.826;2024-02-26T13:09:08;9.83;;;7.63;;
64619;SDS011;51029;51.058;13.826;2024-02-26T13:11:39;8.70;;;7.50;;
64619;SDS011;51029;51.058;13.826;2024-02-26T13:14:05;10.23;;;6.73;;
64619;SDS011;51029;51.058;13.826;2024-02-26T13:16:31;8.57;;;6.70;;
64619;SDS011;51029;51.058;13.826;2024-02-26T13:19:07;9.90;;;7.03;;
64619;SDS011;51029;51.058;13.826;2024-02-26T13:21:33;8.30;;;7.00;;
64619;SDS011;51029;51.058;13.826;2024-02-26T13:24:00;8.10;;;7.20;;
64619;SDS011;51029;51.058;13.826;2024-02-26T13:26:25;7.80;;;7.00;;
64619;SDS011;51029;51.058;13.826;2024-02-26T13:29:01;9.33;;;7.23;;
64619;SDS011;51029;51.058;13.826;2024-02-26T13:31:30;9.10;;;6.70;;
64619;SDS011;51029;51.058;13.826;2024-02-26T13:33:56;7.87;;;6.90;;
64619;SDS011;51029;51.058;13.826;2024-02-26T13:36:23;8.60;;;6.70;;
64619;SDS011;51029;51.058;13.826;2024-02-26T13:38:52;9.03;;;7.20;;
64619;SDS011;51029;51.058;13.826;2024-02-26T13:41:19;9.27;;;6.93;;
64619;SDS011;51029;51.058;13.826;2024-02-26T13:43:45;11.70;;;7.80;;
64619;SDS011;51029;51.058;13.826;2024-02-26T13:46:12;7.50;;;6.70;;
64619;SDS011;51029;51.058;13.826;2024-02-26T13:48:40;7.43;;;6.73;;
64619;SDS011;51029;51.058;13.826;2024-02-26T13:51:06;9.57;;;7.67;;
64619;SDS011;51029;51.058;13.826;2024-02-26T13:53:32;10.17;;;7.30;;
64619;SDS011;51029;51.058;13.826;2024-02-26T13:55:58;8.83;;;7.27;;
64619;SDS011;51029;51.058;13.826;2024-02-26T13:58:26;9.87;;;6.87;;
64619;SDS011;51029;51.058;13.826;2024-02-26T14:00:52;7.77;;;6.83;;
64619;SDS011;51029;51.058;13.826;2024-02-26T14:03:18;8.40;;;7.13;;
64619;SDS011;51029;51.058;13.826;2024-02-26T14:05:44;9.30;;;7.47;;
64619;SDS011;51029;51.058;13.826;2024-02-26T14:08:10;9.53;;;7.47;;
64619;SDS011;51029;51.058;13.826;2024-02-26T14:10:36;8.53;;;7.03;;
64619;SDS011;51029;51.058;13.826;2024-02-26T14:13:02;10.77;;;7.10;;
64619;SDS011;51029;51.058;13.826;2024-02-26T14:15:28;8.67;;;6.57;;